createdAt,value
2018-05-23T00:00:52.984Z,101015.91
2018-05-23T00:03:21.510Z,101009.34
2018-05-23T00:05:50.660Z,101008.48
2018-05-23T00:08:19.900Z,101013.31
2018-05-23T00:10:48.274Z,101014.66
2018-05-23T00:13:16.762Z,101012.92
2018-05-23T00:15:45.189Z,101014.23
2018-05-23T00:18:13.573Z,101012.05
2018-05-23T00:20:42.054Z,101009.42
2018-05-23T00:23:10.433Z,101007.26
2018-05-23T00:25:38.829Z,101007.25
2018-05-23T00:28:07.266Z,101008.11
2018-05-23T00:30:35.651Z,101011.62
2018-05-23T00:33:04.053Z,101012.92
2018-05-23T00:35:32.467Z,101016.83
2018-05-23T00:38:00.900Z,101019.03
2018-05-23T00:40:29.294Z,101018.16
2018-05-23T00:42:57.697Z,101014.23
2018-05-23T00:45:26.087Z,101017.72
2018-05-23T00:47:54.494Z,101017.28
2018-05-23T00:50:23.726Z,101015.51
2018-05-23T00:52:52.034Z,101019.42
2018-05-23T00:55:36.253Z,101025.11
2018-05-23T00:58:04.748Z,101021.64
2018-05-23T01:00:33.333Z,101025.55
2018-05-23T01:03:01.810Z,101023.37
2018-05-23T01:05:30.194Z,101024.66
2018-05-23T01:07:58.612Z,101021.17
2018-05-23T01:10:27.022Z,101024.66
2018-05-23T01:12:55.550Z,101018.09
2018-05-23T01:15:23.939Z,101019.41
2018-05-23T01:17:52.339Z,101018.97
2018-05-23T01:20:20.715Z,101019.87
2018-05-23T01:22:49.095Z,101019.41
2018-05-23T01:25:17.473Z,101014.17
2018-05-23T01:27:45.863Z,101022.05
2018-05-23T01:30:14.270Z,101019.44
2018-05-23T01:32:42.660Z,101022.50
2018-05-23T01:35:11.149Z,101015.94
2018-05-23T01:37:39.528Z,101008.97
2018-05-23T01:40:07.918Z,101008.09
2018-05-23T01:42:36.303Z,101009.84
2018-05-23T01:45:04.686Z,101001.09
2018-05-23T01:47:33.114Z,101002.84
2018-05-23T01:50:01.483Z,101005.03
2018-05-23T01:52:30.637Z,101009.84
2018-05-23T01:54:59.025Z,101009.41
2018-05-23T01:57:27.417Z,101010.71
2018-05-23T01:59:55.801Z,101010.73
2018-05-23T02:02:24.193Z,101010.75
2018-05-23T02:04:52.576Z,101011.62
2018-05-23T02:07:20.976Z,101012.05
2018-05-23T02:09:50.213Z,101012.47
2018-05-23T02:12:18.748Z,101009.85
2018-05-23T02:14:47.137Z,101008.09
2018-05-23T02:17:16.282Z,101015.09
2018-05-23T02:19:44.691Z,101018.14
2018-05-23T02:22:13.113Z,101025.11
2018-05-23T02:24:42.282Z,101027.74
2018-05-23T02:27:10.683Z,101026.00
2018-05-23T02:29:39.208Z,101021.18
2018-05-23T02:32:07.604Z,101019.45
2018-05-23T02:34:35.991Z,101029.03
2018-05-23T02:37:04.394Z,101029.48
2018-05-23T02:39:32.805Z,101028.16
2018-05-23T02:42:01.250Z,101028.62
2018-05-23T02:44:30.428Z,101021.65
2018-05-23T02:46:58.836Z,101025.55
2018-05-23T02:49:27.321Z,101027.31
2018-05-23T02:51:56.477Z,101024.69
2018-05-23T02:54:25.724Z,101033.86
2018-05-23T02:56:54.133Z,101036.02
2018-05-23T02:59:22.550Z,101039.07
2018-05-23T03:01:51.732Z,101043.89
2018-05-23T03:04:20.102Z,101041.26
2018-05-23T03:06:48.495Z,101044.75
2018-05-23T03:09:16.884Z,101048.25
2018-05-23T03:11:45.289Z,101052.59
2018-05-23T03:14:13.657Z,101049.98
2018-05-23T03:16:42.810Z,101040.83
2018-05-23T03:19:11.189Z,101048.23
2018-05-23T03:21:39.582Z,101051.28
2018-05-23T03:24:07.978Z,101053.91
2018-05-23T03:26:36.378Z,101056.08
2018-05-23T03:29:04.801Z,101064.81
2018-05-23T03:31:33.179Z,101060.45
2018-05-23T03:34:01.571Z,101063.09
2018-05-23T03:36:29.958Z,101060.48
2018-05-23T03:38:58.330Z,101059.61
2018-05-23T03:41:26.721Z,101050.00
2018-05-23T03:43:55.199Z,101060.90
2018-05-23T03:46:23.660Z,101055.23
2018-05-23T03:48:52.810Z,101056.11
2018-05-23T03:51:21.250Z,101054.78
2018-05-23T03:53:50.398Z,101051.30
2018-05-23T03:56:18.796Z,101061.33
2018-05-23T03:58:47.188Z,101062.20
2018-05-23T04:01:33.409Z,101069.62
2018-05-23T04:04:20.157Z,101064.41
2018-05-23T04:09:59.854Z,101075.72
2018-05-23T04:12:29.014Z,101074.86
2018-05-23T04:14:57.422Z,101076.17
2018-05-23T04:17:25.815Z,101076.59
2018-05-23T04:19:55.017Z,101081.89
2018-05-23T04:22:24.184Z,101081.02
2018-05-23T04:24:52.653Z,101079.70
2018-05-23T04:27:21.084Z,101088.85
2018-05-23T04:29:49.390Z,101091.50
2018-05-23T04:32:17.791Z,101092.80
2018-05-23T04:34:46.237Z,101091.05
2018-05-23T04:37:15.403Z,101094.97
2018-05-23T04:39:43.809Z,101090.16
2018-05-23T04:42:12.204Z,101099.34
2018-05-23T04:44:41.435Z,101100.64
2018-05-23T04:47:09.823Z,101101.50
2018-05-23T04:49:38.253Z,101102.38
2018-05-23T04:52:06.645Z,101104.98
2018-05-23T04:54:35.034Z,101108.02
2018-05-23T04:57:03.461Z,101113.27
2018-05-23T04:59:31.852Z,101114.13
2018-05-23T05:02:00.233Z,101118.05
2018-05-23T05:04:28.651Z,101120.22
2018-05-23T05:06:57.037Z,101125.91
2018-05-23T05:09:25.572Z,101121.98
2018-05-23T05:11:53.925Z,101127.18
2018-05-23T05:14:23.075Z,101132.46
2018-05-23T05:16:51.473Z,101131.13
2018-05-23T05:19:19.874Z,101135.50
2018-05-23T05:21:48.269Z,101143.37
2018-05-23T05:24:16.673Z,101145.96
2018-05-23T05:26:45.844Z,101152.53
2018-05-23T05:29:14.313Z,101156.44
2018-05-23T05:31:42.915Z,101155.13
2018-05-23T05:34:12.003Z,101161.25
2018-05-23T05:36:40.393Z,101167.80
2018-05-23T05:39:08.773Z,101173.94
2018-05-23T05:41:37.155Z,101173.48
2018-05-23T05:44:06.329Z,101177.41
2018-05-23T05:46:34.721Z,101183.98
2018-05-23T05:49:03.129Z,101186.59
2018-05-23T05:51:31.626Z,101188.32
2018-05-23T05:54:00.042Z,101193.15
2018-05-23T05:56:28.429Z,101198.79
2018-05-23T05:58:56.849Z,101200.95
2018-05-23T06:01:25.239Z,101213.62
2018-05-23T06:03:53.613Z,101210.59
2018-05-23T06:06:22.022Z,101214.91
2018-05-23T06:08:50.414Z,101217.09
2018-05-23T06:11:18.834Z,101220.13
2018-05-23T06:13:47.242Z,101219.67
2018-05-23T06:16:15.702Z,101223.47
2018-05-23T06:18:44.106Z,101222.03
2018-05-23T06:21:12.518Z,101229.89
2018-05-23T06:23:40.987Z,101226.02
2018-05-23T06:26:09.412Z,101221.47
2018-05-23T06:28:38.589Z,101226.39
2018-05-23T06:31:06.965Z,101229.52
2018-05-23T06:33:35.358Z,101224.97
2018-05-23T06:36:03.736Z,101229.13
2018-05-23T06:38:32.150Z,101228.60
2018-05-23T06:41:01.316Z,101232.16
2018-05-23T06:43:29.795Z,101233.25
2018-05-23T06:45:58.874Z,101235.85
2018-05-23T06:48:27.265Z,101240.02
2018-05-23T06:50:55.726Z,101238.91
2018-05-23T06:53:24.201Z,101237.98
2018-05-23T06:55:52.493Z,101242.84
2018-05-23T06:58:20.894Z,101241.39
2018-05-23T07:00:49.285Z,101248.02
2018-05-23T07:03:17.701Z,101238.52
2018-05-23T07:05:46.187Z,101241.33
2018-05-23T07:08:15.254Z,101242.16
2018-05-23T07:10:43.649Z,101246.55
2018-05-23T07:13:12.894Z,101243.94
2018-05-23T07:15:42.057Z,101251.97
2018-05-23T07:18:11.298Z,101258.84
2018-05-23T07:20:39.614Z,101264.78
2018-05-23T07:23:07.989Z,101263.22
2018-05-23T07:25:36.393Z,101259.19
2018-05-23T07:28:05.541Z,101260.63
2018-05-23T07:30:34.694Z,101265.81
2018-05-23T07:33:03.080Z,101266.28
2018-05-23T07:35:31.474Z,101263.00
2018-05-23T07:38:01.452Z,101271.03
2018-05-23T07:40:29.827Z,101267.41
2018-05-23T07:42:58.257Z,101261.20
2018-05-23T07:45:26.648Z,101262.06
2018-05-23T07:47:55.059Z,101259.39
2018-05-23T07:50:24.219Z,101265.72
2018-05-23T07:52:52.591Z,101262.52
2018-05-23T07:55:21.004Z,101262.52
2018-05-23T07:57:49.445Z,101266.72
2018-05-23T08:00:17.981Z,101262.55
2018-05-23T08:02:46.385Z,101262.55
2018-05-23T08:05:15.518Z,101274.80
2018-05-23T08:07:43.920Z,101268.32
2018-05-23T08:10:12.323Z,101276.21
2018-05-23T08:12:40.730Z,101273.23
2018-05-23T08:15:09.926Z,101281.48
2018-05-23T08:17:39.097Z,101277.41
2018-05-23T08:20:07.492Z,101289.38
2018-05-23T08:22:35.901Z,101283.55
2018-05-23T08:25:05.096Z,101285.73
2018-05-23T08:27:33.525Z,101288.10
2018-05-23T08:30:01.919Z,101293.38
2018-05-23T08:32:30.517Z,101289.23
2018-05-23T08:34:58.926Z,101276.80
2018-05-23T08:37:27.329Z,101283.30
2018-05-23T08:39:56.558Z,101287.14
2018-05-23T08:42:24.974Z,101284.50
2018-05-23T08:44:53.422Z,101282.80
2018-05-23T08:47:21.840Z,101274.83
2018-05-23T08:49:50.225Z,101273.05
2018-05-23T08:52:18.595Z,101280.84
2018-05-23T08:54:47.010Z,101276.15
2018-05-23T08:57:15.422Z,101285.73
2018-05-23T08:59:44.615Z,101279.80
2018-05-23T09:02:13.059Z,101288.26
2018-05-23T09:04:41.497Z,101289.20
2018-05-23T09:07:10.645Z,101284.54
2018-05-23T09:09:39.094Z,101288.27
2018-05-23T09:12:07.625Z,101286.18
2018-05-23T09:14:36.745Z,101290.70
2018-05-23T09:17:05.166Z,101293.08
2018-05-23T09:19:34.395Z,101299.36
2018-05-23T09:22:02.819Z,101301.92
2018-05-23T09:24:32.024Z,101307.61
2018-05-23T09:27:01.192Z,101309.73
2018-05-23T09:29:29.613Z,101306.71
2018-05-23T09:31:58.902Z,101314.17
2018-05-23T09:34:27.298Z,101311.87
2018-05-23T09:36:56.470Z,101315.67
2018-05-23T09:39:24.861Z,101309.56
2018-05-23T09:41:53.310Z,101318.70
2018-05-23T09:44:21.689Z,101319.05
2018-05-23T09:46:50.067Z,101321.91
2018-05-23T09:49:18.449Z,101317.30
2018-05-23T09:51:46.832Z,101322.04
2018-05-23T09:54:15.253Z,101320.30
2018-05-23T09:56:43.648Z,101318.42
2018-05-23T09:59:12.048Z,101321.95
2018-05-23T10:01:41.206Z,101321.13
2018-05-23T10:04:09.609Z,101324.30
2018-05-23T10:06:38.005Z,101327.25
2018-05-23T10:09:06.444Z,101329.32
2018-05-23T10:11:34.833Z,101335.91
2018-05-23T10:14:03.213Z,101332.30
2018-05-23T10:16:31.672Z,101332.06
2018-05-23T10:19:00.060Z,101330.80
2018-05-23T10:21:28.460Z,101330.42
2018-05-23T10:23:56.854Z,101328.08
2018-05-23T10:26:25.352Z,101336.80
2018-05-23T10:28:53.648Z,101336.99
2018-05-23T10:31:22.032Z,101339.00
2018-05-23T10:33:50.449Z,101349.84
2018-05-23T10:36:19.605Z,101355.67
2018-05-23T10:38:47.991Z,101355.23
2018-05-23T10:41:17.157Z,101357.23
2018-05-23T10:43:45.637Z,101363.63
2018-05-23T10:46:14.099Z,101366.19
2018-05-23T10:48:42.465Z,101361.91
2018-05-23T10:51:10.835Z,101373.53
2018-05-23T10:53:39.285Z,101373.97
2018-05-23T10:56:07.663Z,101375.78
2018-05-23T10:58:36.140Z,101384.08
2018-05-23T11:01:04.518Z,101388.12
2018-05-23T11:03:32.969Z,101383.31
2018-05-23T11:06:02.320Z,101388.53
2018-05-23T11:08:30.540Z,101391.83
2018-05-23T11:10:58.919Z,101399.49
2018-05-23T11:13:27.329Z,101396.75
2018-05-23T11:15:56.484Z,101394.88
2018-05-23T11:18:24.912Z,101402.28
2018-05-23T11:20:53.373Z,101397.94
2018-05-23T11:23:21.775Z,101402.05
2018-05-23T11:25:50.193Z,101406.66
2018-05-23T11:28:18.586Z,101405.03
2018-05-23T11:30:46.986Z,101407.55
2018-05-23T11:33:15.386Z,101402.79
2018-05-23T11:35:43.813Z,101405.19
2018-05-23T11:38:12.969Z,101411.98
2018-05-23T11:40:41.345Z,101415.66
2018-05-23T11:43:14.673Z,101409.61
2018-05-23T11:45:43.054Z,101411.11
2018-05-23T11:48:11.432Z,101409.63
2018-05-23T11:50:39.809Z,101410.74
2018-05-23T11:53:08.200Z,101405.73
2018-05-23T11:55:36.590Z,101407.08
2018-05-23T11:58:05.776Z,101408.30
2018-05-23T12:00:34.225Z,101406.43
2018-05-23T12:03:02.632Z,101404.23
2018-05-23T12:05:31.042Z,101405.42
2018-05-23T12:07:59.447Z,101396.53
2018-05-23T12:10:28.641Z,101396.17
2018-05-23T12:12:56.987Z,101405.11
2018-05-23T12:15:25.406Z,101399.86
2018-05-23T12:17:54.553Z,101397.44
2018-05-23T12:20:22.978Z,101392.22
2018-05-23T12:22:51.357Z,101391.94
2018-05-23T12:25:19.782Z,101389.34
2018-05-23T12:27:48.154Z,101384.46
2018-05-23T12:30:17.309Z,101379.59
2018-05-23T12:32:45.771Z,101383.38
2018-05-23T12:35:14.257Z,101386.16
2018-05-23T12:37:42.669Z,101381.27
2018-05-23T12:40:11.144Z,101380.95
2018-05-23T12:42:39.560Z,101375.28
2018-05-23T12:45:08.710Z,101380.36
2018-05-23T12:47:37.114Z,101369.37
2018-05-23T12:50:05.544Z,101368.83
2018-05-23T12:52:33.945Z,101366.47
2018-05-23T12:55:02.389Z,101363.45
2018-05-23T12:57:30.785Z,101365.97
2018-05-23T12:59:59.956Z,101353.54
2018-05-23T13:02:28.331Z,101354.16
2018-05-23T13:04:56.711Z,101353.08
2018-05-23T13:07:25.135Z,101341.60
2018-05-23T13:09:54.273Z,101344.25
2018-05-23T13:12:22.799Z,101332.41
2018-05-23T13:14:51.210Z,101337.70
2018-05-23T13:17:20.422Z,101334.78
2018-05-23T13:19:48.801Z,101331.86
2018-05-23T13:22:17.967Z,101332.50
2018-05-23T13:24:46.352Z,101330.80
2018-05-23T13:27:14.743Z,101323.80
2018-05-23T13:29:43.134Z,101325.17
2018-05-23T13:32:12.327Z,101317.94
2018-05-23T13:34:40.733Z,101314.97
2018-05-23T13:37:09.973Z,101318.61
2018-05-23T13:39:38.436Z,101318.66
2018-05-23T13:42:06.927Z,101324.13
2018-05-23T13:44:35.329Z,101318.17
2018-05-23T13:47:03.718Z,101320.38
2018-05-23T13:49:32.151Z,101316.10
2018-05-23T13:52:01.337Z,101314.63
2018-05-23T13:54:29.727Z,101316.22
2018-05-23T13:56:58.917Z,101311.81
2018-05-23T13:59:27.304Z,101302.25
2018-05-23T14:01:55.844Z,101300.46
2018-05-23T14:04:24.134Z,101299.84
2018-05-23T14:06:52.518Z,101296.96
2018-05-23T14:09:20.877Z,101287.89
2018-05-23T14:11:49.274Z,101294.20
2018-05-23T14:14:17.660Z,101292.48
2018-05-23T14:16:46.098Z,101291.51
2018-05-23T14:19:15.253Z,101287.72
2018-05-23T14:21:43.611Z,101299.00
2018-05-23T14:24:12.014Z,101290.61
2018-05-23T14:26:40.430Z,101286.98
2018-05-23T14:29:08.802Z,101286.05
2018-05-23T14:31:37.938Z,101281.53
2018-05-23T14:34:07.117Z,101281.31
2018-05-23T14:36:35.553Z,101273.63
2018-05-23T14:39:03.916Z,101281.11
2018-05-23T14:41:33.051Z,101277.97
2018-05-23T14:44:01.467Z,101276.25
2018-05-23T14:46:29.841Z,101272.88
2018-05-23T14:48:58.233Z,101269.69
2018-05-23T14:51:26.612Z,101279.19
2018-05-23T14:53:55.009Z,101274.20
2018-05-23T14:56:23.390Z,101275.83
2018-05-23T14:58:51.766Z,101279.42
2018-05-23T15:01:20.177Z,101268.16
2018-05-23T15:03:49.354Z,101272.55
2018-05-23T15:06:17.887Z,101263.95
2018-05-23T15:08:46.211Z,101270.34
2018-05-23T15:11:14.602Z,101273.22
2018-05-23T15:13:42.983Z,101264.03
2018-05-23T15:16:11.356Z,101267.58
2018-05-23T15:18:39.749Z,101274.13
2018-05-23T15:21:08.185Z,101270.85
2018-05-23T15:23:36.572Z,101266.72
2018-05-23T15:26:04.967Z,101263.42
2018-05-23T15:28:33.358Z,101262.05
2018-05-23T15:31:01.738Z,101263.43
2018-05-23T15:33:30.211Z,101257.09
2018-05-23T15:35:58.631Z,101251.44
2018-05-23T15:38:27.034Z,101252.09
2018-05-23T15:40:55.496Z,101256.78
2018-05-23T15:43:24.656Z,101257.89
2018-05-23T15:45:53.030Z,101259.58
2018-05-23T15:48:22.187Z,101261.84
2018-05-23T15:50:50.618Z,101262.00
2018-05-23T15:53:19.015Z,101260.59
2018-05-23T15:55:47.447Z,101261.25
2018-05-23T15:58:15.834Z,101260.87
2018-05-23T16:00:44.269Z,101262.12
2018-05-23T16:03:12.706Z,101256.02
2018-05-23T16:05:41.104Z,101252.12
2018-05-23T16:08:10.257Z,101258.45
2018-05-23T16:10:38.647Z,101255.59
2018-05-23T16:13:07.040Z,101257.44
2018-05-23T16:15:35.426Z,101255.67
2018-05-23T16:18:03.824Z,101250.03
2018-05-23T16:20:32.267Z,101250.58
2018-05-23T16:23:01.396Z,101251.65
2018-05-23T16:25:29.782Z,101253.14
2018-05-23T16:27:58.958Z,101247.83
2018-05-23T16:30:27.355Z,101250.52
2018-05-23T16:32:55.730Z,101249.19
2018-05-23T16:35:24.115Z,101242.98
2018-05-23T16:37:52.548Z,101246.99
2018-05-23T16:40:21.710Z,101241.54
2018-05-23T16:42:50.193Z,101243.48
2018-05-23T16:45:18.558Z,101238.61
2018-05-23T16:47:46.949Z,101245.09
2018-05-23T16:50:15.441Z,101241.91
2018-05-23T16:52:43.887Z,101237.34
2018-05-23T16:55:12.286Z,101243.05
2018-05-23T16:57:40.767Z,101240.07
2018-05-23T17:00:09.266Z,101241.98
2018-05-23T17:02:37.642Z,101241.00
2018-05-23T17:05:06.093Z,101247.56
2018-05-23T17:07:34.518Z,101248.94
2018-05-23T17:10:03.687Z,101256.41
2018-05-23T17:12:32.132Z,101257.47
2018-05-23T17:15:00.497Z,101259.40
2018-05-23T17:17:28.888Z,101255.25
2018-05-23T17:19:57.266Z,101259.23
2018-05-23T17:22:25.743Z,101264.88
2018-05-23T17:24:54.131Z,101263.34
2018-05-23T17:27:23.285Z,101270.92
2018-05-23T17:29:52.412Z,101272.71
2018-05-23T17:32:20.966Z,101265.34
2018-05-23T17:34:50.156Z,101260.75
2018-05-23T17:37:19.324Z,101258.23
2018-05-23T17:39:47.707Z,101263.72
2018-05-23T17:42:16.087Z,101266.56
2018-05-23T17:44:44.504Z,101265.45
2018-05-23T17:47:13.714Z,101269.64
2018-05-23T17:49:42.892Z,101261.48
2018-05-23T17:52:11.282Z,101259.33
2018-05-23T17:54:39.722Z,101260.42
2018-05-23T17:57:08.190Z,101259.33
2018-05-23T17:59:36.542Z,101257.44
2018-05-23T18:02:04.919Z,101265.24
2018-05-23T18:04:33.323Z,101268.38
2018-05-23T18:07:02.484Z,101265.42
2018-05-23T18:09:30.867Z,101267.03
2018-05-23T18:11:59.262Z,101263.45
2018-05-23T18:14:27.644Z,101272.00
2018-05-23T18:16:56.021Z,101272.80
2018-05-23T18:19:24.403Z,101279.28
2018-05-23T18:21:52.859Z,101278.59
2018-05-23T18:24:22.010Z,101277.67
2018-05-23T18:26:51.174Z,101281.02
2018-05-23T18:29:19.662Z,101275.44
2018-05-23T18:31:47.975Z,101278.33
2018-05-23T18:34:16.375Z,101275.68
2018-05-23T18:36:45.527Z,101270.34
2018-05-23T18:39:13.945Z,101274.37
2018-05-23T18:41:43.134Z,101281.99
2018-05-23T18:44:11.613Z,101273.44
2018-05-23T18:46:40.004Z,101277.41
2018-05-23T18:49:08.413Z,101275.67
2018-05-23T18:51:37.573Z,101279.45
2018-05-23T18:54:05.962Z,101284.20
2018-05-23T18:56:34.384Z,101284.83
2018-05-23T18:59:03.594Z,101285.48
2018-05-23T19:01:32.013Z,101283.59
2018-05-23T19:04:00.392Z,101293.61
2018-05-23T19:06:28.794Z,101294.39
2018-05-23T19:08:58.014Z,101295.42
2018-05-23T19:11:26.436Z,101298.55
2018-05-23T19:13:54.860Z,101299.92
2018-05-23T19:16:23.211Z,101297.97
2018-05-23T19:18:51.637Z,101299.41
2018-05-23T19:21:20.053Z,101300.97
2018-05-23T19:23:49.226Z,101307.78
2018-05-23T19:26:17.657Z,101315.02
2018-05-23T19:28:46.067Z,101318.95
2018-05-23T19:31:14.471Z,101316.34
2018-05-23T19:33:42.867Z,101325.53
2018-05-23T19:36:11.233Z,101324.10
2018-05-23T19:38:39.629Z,101328.08
2018-05-23T19:41:08.020Z,101330.50
2018-05-23T19:43:36.482Z,101340.88
2018-05-23T19:46:05.015Z,101333.17
2018-05-23T19:48:34.170Z,101337.36
2018-05-23T19:51:02.571Z,101338.52
2018-05-23T19:53:30.959Z,101338.30
2018-05-23T19:55:59.362Z,101349.98
2018-05-23T19:58:28.554Z,101345.07
2018-05-23T20:00:57.720Z,101355.87
2018-05-23T20:03:26.866Z,101347.43
2018-05-23T20:05:56.037Z,101357.48
2018-05-23T20:08:24.419Z,101360.70
2018-05-23T20:10:52.803Z,101357.35
2018-05-23T20:13:21.215Z,101368.25
2018-05-23T20:15:50.501Z,101371.45
2018-05-23T20:18:18.894Z,101369.82
2018-05-23T20:20:48.201Z,101368.67
2018-05-23T20:23:16.520Z,101367.81
2018-05-23T20:25:44.938Z,101367.38
2018-05-23T20:28:13.354Z,101368.86
2018-05-23T20:30:42.580Z,101367.07
2018-05-23T20:33:10.941Z,101367.23
2018-05-23T20:35:40.114Z,101367.96
2018-05-23T20:38:08.526Z,101362.53
2018-05-23T20:40:37.873Z,101366.12
2018-05-23T20:43:06.366Z,101365.33
2018-05-23T20:45:35.522Z,101371.51
2018-05-23T20:48:04.694Z,101373.80
2018-05-23T20:50:33.262Z,101382.20
2018-05-23T20:53:01.641Z,101377.74
2018-05-23T20:55:30.011Z,101384.28
2018-05-23T20:57:58.385Z,101382.06
2018-05-23T21:00:26.797Z,101387.66
2018-05-23T21:02:55.188Z,101378.78
2018-05-23T21:05:23.661Z,101384.74
2018-05-23T21:07:52.741Z,101386.30
2018-05-23T21:10:21.174Z,101387.25
2018-05-23T21:12:49.577Z,101391.69
2018-05-23T21:15:18.727Z,101393.36
2018-05-23T21:17:48.137Z,101387.56
2018-05-23T21:20:16.543Z,101395.09
2018-05-23T21:22:45.961Z,101392.91
2018-05-23T21:25:14.379Z,101394.80
2018-05-23T21:27:42.805Z,101401.07
2018-05-23T21:30:11.150Z,101400.59
2018-05-23T21:32:39.744Z,101391.38
2018-05-23T21:35:08.149Z,101400.26
2018-05-23T21:37:36.562Z,101399.37
2018-05-23T21:40:04.981Z,101391.44
2018-05-23T21:42:33.364Z,101398.88
2018-05-23T21:45:01.800Z,101398.39
2018-05-23T21:47:30.181Z,101401.60
2018-05-23T21:49:58.582Z,101399.66
2018-05-23T21:52:26.958Z,101403.39
2018-05-23T21:54:55.343Z,101408.84
2018-05-23T21:57:23.777Z,101410.25
2018-05-23T21:59:52.157Z,101404.22
2018-05-23T22:02:20.576Z,101401.70
2018-05-23T22:04:48.973Z,101408.36
2018-05-23T22:07:17.413Z,101408.41
2018-05-23T22:09:45.821Z,101406.75
2018-05-23T22:12:14.968Z,101405.91
2018-05-23T22:14:44.163Z,101407.25
2018-05-23T22:17:13.303Z,101407.69
2018-05-23T22:19:41.764Z,101407.73
2018-05-23T22:22:10.158Z,101411.20
2018-05-23T22:24:38.581Z,101408.59
2018-05-23T22:27:07.053Z,101409.04
2018-05-23T22:29:35.615Z,101411.69
2018-05-23T22:32:04.034Z,101409.52
2018-05-23T22:34:32.770Z,101409.11
2018-05-23T22:37:02.002Z,101406.05
2018-05-23T22:39:30.418Z,101403.02
2018-05-23T22:41:58.848Z,101409.56
2018-05-23T22:44:28.036Z,101411.32
2018-05-23T22:46:57.291Z,101406.94
2018-05-23T22:49:25.810Z,101404.70
2018-05-23T22:51:54.327Z,101411.23
2018-05-23T22:54:22.800Z,101411.25
2018-05-23T22:56:52.138Z,101411.22
2018-05-23T22:59:20.562Z,101418.17
2018-05-23T23:01:49.031Z,101411.16
2018-05-23T23:04:18.246Z,101412.45
2018-05-23T23:06:46.726Z,101418.55
2018-05-23T23:09:15.223Z,101415.00
2018-05-23T23:11:44.587Z,101414.11
2018-05-23T23:14:13.024Z,101409.73
2018-05-23T23:16:41.483Z,101408.83
2018-05-23T23:19:10.021Z,101407.94
2018-05-23T23:21:39.345Z,101412.70
2018-05-23T23:24:08.058Z,101410.45
2018-05-23T23:26:36.525Z,101402.11
2018-05-23T23:29:05.667Z,101410.37
2018-05-23T23:31:34.401Z,101406.02
2018-05-23T23:34:02.826Z,101407.74
2018-05-23T23:36:31.276Z,101402.94
2018-05-23T23:38:59.773Z,101398.53
2018-05-23T23:41:28.385Z,101394.99
2018-05-23T23:43:56.809Z,101401.55
2018-05-23T23:46:26.032Z,101397.64
2018-05-23T23:48:54.467Z,101400.77
2018-05-23T23:51:22.974Z,101395.09
2018-05-23T23:53:52.388Z,101391.20
2018-05-23T23:56:21.619Z,101388.28
2018-05-23T23:58:50.146Z,101387.04
